Springfield, Ohio
Current Conditions -  °F | °C
As of 11:22 PM on Monday 20 Oct 2014 (Local Time) from KSGH Reporting Station
Haze Haze  
Wind Chill: 46°   Ceiling: 8000
Heat Index: 48°   Visibility: 3mi
Dew Point: 48°   Wind: 5mph
Humidity: 100%   Direction: 200°SSW
Pressure: 29.91"   Gusts: NA
Location:  39.93°N, 83.81°W
Report Text: KSGH 210322Z AUTO 20004KT 3SM BR BKN080 09/09 A2991 RMK AO2
Loading
Personal Weather Stations






























Interactive Weather Map New forecast layout! Learn more

10-Day Weather Forecast

Advertisements
Track Severe Weather on mobile